Time;durP1;ratioP1;P1;durP2;ratioP2;P2;SDS_P1;SDS_P2;PMS_P1;PMS_P2;Temp;Humidity;BMP_temperature;BMP_pressure;BME280_temperature;BME280_humidity;BME280_pressure;Samples;Min_cycle;Max_cycle;Signal;HPM_P1;HPM_P2
2023/05/10 00:01:26;;;;;;;8.95;8.75;;;15.60;99.90;;;;;;5079681;28;20232;-76
2023/05/10 00:03:54;;;;;;;8.98;8.77;;;15.60;99.90;;;;;;5079631;28;20225;-76
2023/05/10 00:06:21;;;;;;;9.00;8.80;;;15.60;99.90;;;;;;5080516;28;20237;-77
2023/05/10 00:08:49;;;;;;;8.73;8.52;;;15.60;99.90;;;;;;5079741;28;20246;-77
2023/05/10 00:11:16;;;;;;;9.00;8.80;;;15.60;99.90;;;;;;5079421;28;20234;-77
2023/05/10 00:13:44;;;;;;;9.02;8.82;;;15.50;99.90;;;;;;5079679;28;20234;-77
2023/05/10 00:16:12;;;;;;;9.00;8.80;;;15.50;99.90;;;;;;5079636;28;20229;-77
2023/05/10 00:18:41;;;;;;;8.73;8.52;;;15.40;99.90;;;;;;5079698;28;20226;-76
2023/05/10 00:21:09;;;;;;;8.90;8.70;;;15.30;99.90;;;;;;5079277;28;20230;-77
2023/05/10 00:23:37;;;;;;;8.60;8.40;;;15.20;99.90;;;;;;5079750;28;21124;-77
2023/05/10 00:26:05;;;;;;;8.60;8.40;;;15.20;99.90;;;;;;5079388;28;20241;-77
2023/05/10 00:28:32;;;;;;;8.80;8.60;;;15.10;99.90;;;;;;5079303;28;20234;-77
2023/05/10 00:31:00;;;;;;;8.70;8.50;;;15.10;99.90;;;;;;5078617;28;20233;-77
2023/05/10 00:33:27;;;;;;;8.68;8.48;;;15.10;99.90;;;;;;5079783;28;20234;-76
2023/05/10 00:35:56;;;;;;;8.65;8.45;;;15.00;99.90;;;;;;5084747;28;20318;-76
2023/05/10 00:38:23;;;;;;;8.60;8.40;;;15.00;99.90;;;;;;5081807;28;20241;-76
2023/05/10 00:40:51;;;;;;;8.60;8.40;;;15.00;99.90;;;;;;5084192;28;20242;-78
2023/05/10 00:43:18;;;;;;;8.75;8.55;;;14.90;99.90;;;;;;5083930;28;20237;-76
2023/05/10 00:45:46;;;;;;;8.65;8.45;;;14.90;99.90;;;;;;5083800;28;20236;-77
2023/05/10 00:48:14;;;;;;;8.55;8.35;;;14.90;99.90;;;;;;5083395;28;20345;-77
2023/05/10 00:50:41;;;;;;;8.70;8.50;;;14.90;99.90;;;;;;5082496;28;20226;-76
2023/05/10 00:53:11;;;;;;;8.60;8.40;;;14.90;99.90;;;;;;5083014;28;20234;-76
2023/05/10 00:55:38;;;;;;;8.48;8.27;;;14.90;99.90;;;;;;5083084;28;20226;-77
2023/05/10 00:58:06;;;;;;;8.30;8.10;;;14.90;99.90;;;;;;5082763;28;20234;-76
2023/05/10 01:00:35;;;;;;;8.38;8.18;;;14.90;99.90;;;;;;5083044;28;20233;-76
2023/05/10 01:03:03;;;;;;;8.25;8.05;;;14.90;99.90;;;;;;5082807;28;20297;-77
2023/05/10 01:05:31;;;;;;;8.30;8.10;;;14.80;99.90;;;;;;5082953;28;21079;-77
2023/05/10 01:07:59;;;;;;;8.23;8.02;;;14.80;99.90;;;;;;5082484;28;20237;-77
2023/05/10 01:10:28;;;;;;;8.30;8.10;;;14.80;99.90;;;;;;5082209;28;20314;-77
2023/05/10 01:12:56;;;;;;;8.40;8.20;;;14.80;99.90;;;;;;5082832;28;20226;-77
2023/05/10 01:15:24;;;;;;;8.10;7.90;;;14.70;99.90;;;;;;5082152;28;20245;-77
2023/05/10 01:17:52;;;;;;;8.13;7.93;;;14.70;99.90;;;;;;5082563;28;20317;-77
2023/05/10 01:20:20;;;;;;;8.13;7.93;;;14.60;99.90;;;;;;5082296;28;20237;-76
2023/05/10 01:23:14;;;;;;;8.25;8.05;;;14.60;99.90;;;;;;5082637;28;20237;-77
2023/05/10 01:26:17;;;;;;;8.05;7.85;;;14.60;99.90;;;;;;5082905;28;20238;-77
2023/05/10 01:29:20;;;;;;;8.10;7.90;;;14.60;99.90;;;;;;5062604;28;20235;-78
2023/05/10 01:32:23;;;;;;;7.95;7.75;;;14.50;99.90;;;;;;5074687;28;20222;-77
2023/05/10 01:35:01;;;;;;;8.00;7.80;;;14.40;99.90;;;;;;5075365;28;20280;-76
2023/05/10 01:37:42;;;;;;;8.00;7.80;;;14.30;99.90;;;;;;5082375;28;20233;-76
2023/05/10 01:40:19;;;;;;;7.97;7.77;;;14.30;99.90;;;;;;5062534;28;20229;-77
2023/05/10 01:42:55;;;;;;;7.93;7.73;;;14.30;99.90;;;;;;5061562;28;20226;-77
2023/05/10 01:45:31;;;;;;;7.73;7.53;;;14.30;99.90;;;;;;5063579;28;20261;-76
2023/05/10 01:48:08;;;;;;;8.05;7.85;;;14.30;99.90;;;;;;5066293;28;20294;-77
2023/05/10 01:50:39;;;;;;;7.90;7.70;;;14.30;99.90;;;;;;5064173;28;20227;-77
2023/05/10 01:53:11;;;;;;;8.00;7.80;;;14.30;99.90;;;;;;5063510;28;20207;-76
2023/05/10 01:55:47;;;;;;;7.80;7.60;;;14.20;99.90;;;;;;5062996;28;20242;-76
2023/05/10 01:58:21;;;;;;;7.80;7.60;;;14.20;99.90;;;;;;5062085;28;20238;-76
2023/05/10 02:00:51;;;;;;;7.85;7.65;;;14.20;99.90;;;;;;5061309;28;20231;-77
2023/05/10 02:03:25;;;;;;;7.90;7.70;;;14.20;99.90;;;;;;5061617;28;20231;-77
2023/05/10 02:05:55;;;;;;;8.10;7.90;;;14.20;99.90;;;;;;5061791;28;20230;-77
2023/05/10 02:08:23;;;;;;;7.93;7.73;;;14.20;99.90;;;;;;5062772;28;20223;-77
2023/05/10 02:10:55;;;;;;;7.90;7.70;;;14.20;99.90;;;;;;5060971;28;20242;-77
2023/05/10 02:13:24;;;;;;;8.10;7.90;;;14.20;99.90;;;;;;5061616;28;20336;-77
2023/05/10 02:15:53;;;;;;;7.80;7.60;;;14.20;99.90;;;;;;5061207;28;20231;-78
2023/05/10 02:18:23;;;;;;;7.80;7.60;;;14.20;99.90;;;;;;5061516;28;20231;-78
2023/05/10 02:20:53;;;;;;;7.85;7.65;;;14.20;99.90;;;;;;5060896;28;20354;-77
2023/05/10 02:23:22;;;;;;;8.07;7.87;;;14.20;99.90;;;;;;5061176;28;20223;-77
2023/05/10 02:25:50;;;;;;;7.80;7.60;;;14.30;99.90;;;;;;5061328;28;20235;-78
2023/05/10 02:28:19;;;;;;;7.97;7.78;;;14.30;99.90;;;;;;5061539;28;20330;-77
2023/05/10 02:30:49;;;;;;;7.78;7.57;;;14.20;99.90;;;;;;5061516;28;20262;-78
2023/05/10 02:33:18;;;;;;;7.70;7.50;;;14.20;99.90;;;;;;5064922;28;20309;-77
2023/05/10 02:35:48;;;;;;;8.00;7.80;;;14.20;99.90;;;;;;5061723;28;20321;-77
2023/05/10 02:38:20;;;;;;;7.93;7.72;;;14.20;99.90;;;;;;5061592;28;20258;-77
2023/05/10 02:40:49;;;;;;;7.70;7.50;;;14.20;99.90;;;;;;5060862;28;20246;-78
2023/05/10 02:43:18;;;;;;;7.60;7.40;;;14.20;99.90;;;;;;5061124;28;20231;-77
2023/05/10 02:45:49;;;;;;;7.55;7.35;;;14.10;99.90;;;;;;5060822;28;20234;-78
2023/05/10 02:48:17;;;;;;;7.60;7.40;;;14.20;99.90;;;;;;5069933;28;20330;-78
2023/05/10 02:50:51;;;;;;;7.60;7.40;;;14.20;99.90;;;;;;5060463;28;20219;-77
2023/05/10 02:53:24;;;;;;;7.70;7.50;;;14.10;99.90;;;;;;5060418;28;20226;-79
2023/05/10 02:55:57;;;;;;;7.37;7.17;;;14.10;99.90;;;;;;5081766;28;20261;-77
2023/05/10 02:58:25;;;;;;;7.40;7.20;;;14.10;99.90;;;;;;5080658;28;20238;-76
2023/05/10 03:00:52;;;;;;;7.60;7.40;;;14.00;99.90;;;;;;5078231;28;20230;-76
2023/05/10 03:03:21;;;;;;;7.40;7.20;;;14.00;99.90;;;;;;5072148;28;20265;-76
2023/05/10 03:05:50;;;;;;;7.65;7.45;;;14.10;99.90;;;;;;5080704;28;20233;-76
2023/05/10 03:08:17;;;;;;;7.70;7.50;;;14.10;99.90;;;;;;5080546;28;20230;-76
2023/05/10 03:10:57;;;;;;;7.40;7.20;;;14.00;99.90;;;;;;5080221;28;20348;-77
2023/05/10 03:13:36;;;;;;;7.60;7.40;;;14.10;99.90;;;;;;5081778;28;20294;-78
2023/05/10 03:16:11;;;;;;;7.70;7.50;;;14.10;99.90;;;;;;5082300;28;20234;-79
2023/05/10 03:18:45;;;;;;;7.30;7.10;;;14.10;99.90;;;;;;5084961;28;20233;-79
2023/05/10 03:21:19;;;;;;;7.00;6.80;;;14.10;99.90;;;;;;5085188;28;20233;-79
2023/05/10 03:23:53;;;;;;;6.97;6.77;;;14.10;99.90;;;;;;5083954;28;20230;-78
2023/05/10 03:26:26;;;;;;;7.30;7.10;;;14.00;99.90;;;;;;5082460;28;20229;-78
2023/05/10 03:28:55;;;;;;;7.30;7.10;;;13.90;99.90;;;;;;5081930;28;20248;-78
2023/05/10 03:31:23;;;;;;;7.10;6.90;;;13.90;99.90;;;;;;5081279;28;20238;-78
2023/05/10 03:33:52;;;;;;;7.30;7.10;;;13.90;99.90;;;;;;5079945;28;20249;-79
2023/05/10 03:36:21;;;;;;;7.80;7.60;;;13.90;99.90;;;;;;5080389;28;20234;-76
2023/05/10 03:38:48;;;;;;;7.60;7.40;;;13.80;99.90;;;;;;5079729;28;20240;-76
2023/05/10 03:41:16;;;;;;;7.75;7.55;;;13.80;99.90;;;;;;5069567;28;20238;-79
2023/05/10 03:43:43;;;;;;;7.37;7.17;;;13.80;99.90;;;;;;5061782;28;20219;-77
2023/05/10 03:46:11;;;;;;;7.70;7.50;;;13.70;99.90;;;;;;5061652;28;20230;-76
2023/05/10 03:48:38;;;;;;;7.80;7.60;;;13.60;99.90;;;;;;5060939;28;20734;-75
2023/05/10 03:51:06;;;;;;;7.87;7.67;;;13.60;99.90;;;;;;5060382;28;20245;-77
2023/05/10 03:53:35;;;;;;;7.77;7.57;;;13.70;99.90;;;;;;5059838;28;20231;-76
2023/05/10 03:56:02;;;;;;;7.90;7.70;;;13.70;99.90;;;;;;5059554;28;20300;-77
2023/05/10 03:58:30;;;;;;;7.60;7.40;;;13.70;99.90;;;;;;5059937;28;20288;-79
2023/05/10 04:00:57;;;;;;;7.80;7.60;;;13.60;99.90;;;;;;5060226;28;20223;-77
2023/05/10 04:03:25;;;;;;;7.57;7.38;;;13.70;99.90;;;;;;5060432;28;20223;-77
2023/05/10 04:06:01;;;;;;;7.53;7.33;;;13.60;99.90;;;;;;5060309;28;20234;-76
2023/05/10 04:08:28;;;;;;;7.90;7.70;;;13.60;99.90;;;;;;5060461;28;20234;-77
2023/05/10 04:11:07;;;;;;;8.17;7.97;;;13.60;99.90;;;;;;5059450;28;20238;-77
2023/05/10 04:13:35;;;;;;;8.00;7.80;;;13.50;99.90;;;;;;5062442;28;20230;-76
2023/05/10 04:16:02;;;;;;;8.10;7.90;;;13.50;99.90;;;;;;5063994;28;20226;-77
2023/05/10 04:18:30;;;;;;;8.10;7.90;;;13.40;99.90;;;;;;5064275;28;20234;-78
2023/05/10 04:20:57;;;;;;;8.30;8.10;;;13.40;99.90;;;;;;5063007;28;20238;-77
2023/05/10 04:23:24;;;;;;;8.30;8.10;;;13.40;99.90;;;;;;5064588;28;20249;-76
2023/05/10 04:25:52;;;;;;;7.80;7.60;;;13.40;99.90;;;;;;5069317;28;20285;-77
2023/05/10 04:28:21;;;;;;;8.10;7.90;;;13.40;99.90;;;;;;5067210;28;20233;-77
2023/05/10 04:30:49;;;;;;;8.10;7.90;;;13.40;99.90;;;;;;5066069;28;20238;-79
2023/05/10 04:33:16;;;;;;;8.70;8.50;;;13.40;99.90;;;;;;5065352;28;20230;-78
2023/05/10 04:35:44;;;;;;;8.60;8.40;;;13.30;99.90;;;;;;5068618;28;20301;-77
2023/05/10 04:38:12;;;;;;;8.50;8.30;;;13.30;99.90;;;;;;5068908;28;20231;-78
2023/05/10 04:40:39;;;;;;;8.10;7.90;;;13.30;99.90;;;;;;5064308;28;20253;-78
2023/05/10 04:43:06;;;;;;;8.57;8.37;;;13.30;99.90;;;;;;5064361;28;20231;-77
2023/05/10 04:45:35;;;;;;;8.80;8.60;;;13.30;99.90;;;;;;5064119;28;20231;-77
2023/05/10 04:48:03;;;;;;;8.40;8.20;;;13.30;99.90;;;;;;5062951;28;20234;-77
2023/05/10 04:50:30;;;;;;;8.70;8.50;;;13.30;99.90;;;;;;5061605;28;20403;-76
2023/05/10 04:52:58;;;;;;;8.48;8.27;;;13.20;99.90;;;;;;5064083;28;20341;-77
2023/05/10 04:55:26;;;;;;;8.50;8.30;;;13.30;99.90;;;;;;5062951;28;20242;-79
2023/05/10 04:57:55;;;;;;;8.53;8.33;;;13.40;99.90;;;;;;5065405;28;20289;-79
2023/05/10 05:00:25;;;;;;;8.40;8.20;;;13.30;99.90;;;;;;5063558;28;20265;-76
2023/05/10 05:02:54;;;;;;;8.40;8.20;;;13.40;99.90;;;;;;5062071;28;20231;-77
2023/05/10 05:05:22;;;;;;;8.40;8.20;;;13.40;99.90;;;;;;5062076;28;20241;-77
2023/05/10 05:07:49;;;;;;;8.43;8.23;;;13.40;99.90;;;;;;5062754;28;20227;-79
2023/05/10 05:10:17;;;;;;;8.57;8.37;;;13.40;99.90;;;;;;5063820;28;20756;-78
2023/05/10 05:12:44;;;;;;;8.40;8.20;;;13.40;99.90;;;;;;5061922;28;20226;-78
2023/05/10 05:15:12;;;;;;;8.40;8.20;;;13.50;99.90;;;;;;5063214;28;20233;-79
2023/05/10 05:17:40;;;;;;;8.60;8.40;;;13.50;99.90;;;;;;5063902;28;20230;-79
2023/05/10 05:20:13;;;;;;;8.60;8.40;;;13.50;99.90;;;;;;5064498;28;20233;-79
2023/05/10 05:22:41;;;;;;;8.23;8.03;;;13.60;99.90;;;;;;5063975;28;20223;-82
2023/05/10 05:25:11;;;;;;;8.50;8.30;;;13.60;99.90;;;;;;5063100;28;20318;-79
2023/05/10 05:27:39;;;;;;;8.70;8.50;;;13.70;99.90;;;;;;5063480;28;20231;-80
2023/05/10 05:30:08;;;;;;;8.63;8.43;;;13.70;99.90;;;;;;5063487;28;20299;-79
2023/05/10 05:32:36;;;;;;;8.70;8.50;;;13.70;99.90;;;;;;5064089;28;20245;-79
2023/05/10 05:35:03;;;;;;;9.27;8.97;;;13.70;99.90;;;;;;5064134;28;20331;-79
2023/05/10 05:37:32;;;;;;;8.97;8.70;;;13.70;99.90;;;;;;5063905;28;20235;-79
2023/05/10 05:40:01;;;;;;;9.17;8.87;;;13.70;99.90;;;;;;5071508;28;20245;-79
2023/05/10 05:42:28;;;;;;;9.13;8.83;;;13.70;99.90;;;;;;5082113;28;20245;-79
2023/05/10 05:44:56;;;;;;;9.03;8.73;;;13.60;99.90;;;;;;5083637;28;20234;-78
2023/05/10 05:47:23;;;;;;;9.20;8.90;;;13.70;99.90;;;;;;5082997;28;20309;-78
2023/05/10 05:49:51;;;;;;;9.10;8.80;;;13.80;99.90;;;;;;5069259;28;20302;-78
2023/05/10 05:52:19;;;;;;;9.40;9.10;;;13.80;99.90;;;;;;5061375;28;20346;-78
2023/05/10 05:54:48;;;;;;;9.20;8.90;;;13.80;99.90;;;;;;5062753;28;20317;-78
2023/05/10 05:57:15;;;;;;;9.10;8.80;;;13.90;99.90;;;;;;5063706;28;20226;-78
2023/05/10 05:59:43;;;;;;;9.27;8.97;;;13.90;99.90;;;;;;5062518;28;20230;-79
2023/05/10 06:02:11;;;;;;;8.80;8.60;;;13.90;99.90;;;;;;5062485;28;20325;-78
2023/05/10 06:04:39;;;;;;;9.07;8.77;;;13.90;99.90;;;;;;5061432;28;20235;-78
2023/05/10 06:07:06;;;;;;;8.60;8.40;;;13.90;99.90;;;;;;5061827;28;20223;-78
2023/05/10 06:09:34;;;;;;;8.40;8.20;;;14.00;99.90;;;;;;5061680;28;20230;-78
2023/05/10 06:12:03;;;;;;;8.40;8.20;;;14.00;99.90;;;;;;5061499;28;20242;-77
2023/05/10 06:14:30;;;;;;;8.60;8.40;;;14.10;99.90;;;;;;5061929;28;20266;-79
2023/05/10 06:16:59;;;;;;;9.20;8.90;;;14.10;99.90;;;;;;5061834;28;20327;-78
2023/05/10 06:19:27;;;;;;;9.27;8.97;;;14.00;99.90;;;;;;5067447;28;20219;-78
2023/05/10 06:21:54;;;;;;;8.87;8.67;;;14.00;99.90;;;;;;5063626;28;20223;-78
2023/05/10 06:24:22;;;;;;;8.90;8.70;;;14.00;99.90;;;;;;5062664;28;20296;-78
2023/05/10 06:26:50;;;;;;;8.80;8.60;;;13.90;99.90;;;;;;5062743;28;20239;-78
2023/05/10 06:29:19;;;;;;;9.10;8.80;;;13.90;99.90;;;;;;5061831;28;20245;-78
2023/05/10 06:31:46;;;;;;;9.00;8.73;;;14.00;99.90;;;;;;5061485;28;20377;-78
2023/05/10 06:34:14;;;;;;;9.30;9.00;;;14.00;99.90;;;;;;5062144;28;20241;-79
2023/05/10 06:36:41;;;;;;;9.10;8.80;;;14.00;99.90;;;;;;5061706;28;20525;-78
2023/05/10 06:39:11;;;;;;;9.20;8.90;;;14.10;99.90;;;;;;5061273;28;20259;-78
2023/05/10 06:41:38;;;;;;;9.40;9.10;;;14.20;99.90;;;;;;5061292;28;20314;-78
2023/05/10 06:44:06;;;;;;;9.25;8.95;;;14.50;99.90;;;;;;5062797;28;20231;-79
2023/05/10 06:46:36;;;;;;;9.23;8.93;;;14.60;99.90;;;;;;5062054;28;20226;-77
2023/05/10 06:49:04;;;;;;;9.40;9.10;;;14.60;99.90;;;;;;5060978;28;20242;-77
2023/05/10 06:51:32;;;;;;;9.40;9.10;;;14.50;99.90;;;;;;5058341;28;20231;-78
2023/05/10 06:54:00;;;;;;;9.15;8.85;;;14.60;99.90;;;;;;5058268;28;20238;-78
2023/05/10 06:56:27;;;;;;;9.35;9.05;;;14.60;99.90;;;;;;5058872;28;20230;-78
2023/05/10 06:58:55;;;;;;;9.02;8.77;;;14.70;99.90;;;;;;5059575;28;20240;-78
2023/05/10 07:01:23;;;;;;;9.13;8.85;;;14.70;99.90;;;;;;5061153;28;20227;-79
2023/05/10 07:03:51;;;;;;;8.77;8.57;;;14.80;99.90;;;;;;5061591;28;20727;-78
2023/05/10 07:06:19;;;;;;;8.63;8.43;;;14.90;99.90;;;;;;5060890;28;20327;-78
2023/05/10 07:08:47;;;;;;;8.90;8.70;;;14.90;99.90;;;;;;5063589;28;20226;-79
2023/05/10 07:11:15;;;;;;;9.05;8.85;;;14.90;99.90;;;;;;5065255;28;20302;-79
2023/05/10 07:13:44;;;;;;;8.50;8.30;;;14.90;99.90;;;;;;5065435;28;20298;-78
2023/05/10 07:16:11;;;;;;;8.48;8.27;;;15.00;99.90;;;;;;5065063;28;20227;-79
2023/05/10 07:18:39;;;;;;;8.80;8.60;;;15.10;99.90;;;;;;5069950;28;20290;-81
2023/05/10 07:21:08;;;;;;;8.77;8.57;;;15.00;99.90;;;;;;5070673;28;20198;-81
2023/05/10 07:23:35;;;;;;;9.07;8.88;;;14.90;99.90;;;;;;5072287;28;20234;-81
2023/05/10 07:26:03;;;;;;;8.95;8.75;;;14.70;99.90;;;;;;5070004;28;20286;-82
2023/05/10 07:28:31;;;;;;;9.00;8.80;;;14.70;99.90;;;;;;5070817;28;20223;-81
2023/05/10 07:30:59;;;;;;;8.90;8.70;;;14.70;99.90;;;;;;5069264;28;20233;-81
2023/05/10 07:33:26;;;;;;;8.88;8.68;;;14.80;99.90;;;;;;5067429;28;20243;-81
2023/05/10 07:35:54;;;;;;;9.20;8.90;;;14.90;99.90;;;;;;5069777;28;20299;-82
2023/05/10 07:38:23;;;;;;;9.30;9.00;;;15.10;99.90;;;;;;5071492;28;20227;-81
2023/05/10 07:40:51;;;;;;;9.75;9.45;;;15.10;99.90;;;;;;5070540;28;20230;-82
2023/05/10 07:43:18;;;;;;;9.65;9.35;;;15.00;99.90;;;;;;5070195;28;20254;-80
2023/05/10 07:45:46;;;;;;;9.85;9.55;;;15.10;99.90;;;;;;5069245;28;20226;-80
2023/05/10 07:48:14;;;;;;;9.60;9.30;;;15.10;99.90;;;;;;5069887;28;20219;-80
2023/05/10 07:50:41;;;;;;;9.57;9.27;;;15.10;99.90;;;;;;5070096;28;20251;-81
2023/05/10 07:53:09;;;;;;;9.45;9.15;;;15.00;99.90;;;;;;5068573;28;20238;-80
2023/05/10 07:55:38;;;;;;;9.80;9.50;;;15.00;99.90;;;;;;5070253;28;20266;-79
2023/05/10 07:58:06;;;;;;;9.43;9.13;;;15.10;99.90;;;;;;5067957;28;20257;-79
2023/05/10 08:00:35;;;;;;;9.65;9.35;;;15.20;99.90;;;;;;5062915;28;20227;-80
2023/05/10 08:03:03;;;;;;;9.52;9.23;;;15.40;99.90;;;;;;5061827;28;20254;-80
2023/05/10 08:05:30;;;;;;;9.52;9.23;;;15.60;99.90;;;;;;5065642;28;20237;-78
2023/05/10 08:07:59;;;;;;;9.55;9.25;;;15.70;99.90;;;;;;5067282;28;20223;-79
2023/05/10 08:10:26;;;;;;;9.50;9.20;;;15.70;99.90;;;;;;5063266;28;20285;-79
2023/05/10 08:12:55;;;;;;;9.45;9.15;;;15.60;99.90;;;;;;5064005;28;20235;-79
2023/05/10 08:15:23;;;;;;;9.43;9.13;;;15.50;99.90;;;;;;5062240;28;20231;-79
2023/05/10 08:17:50;;;;;;;9.70;9.40;;;15.60;99.90;;;;;;5061177;28;20246;-79
2023/05/10 08:20:18;;;;;;;9.60;9.30;;;15.70;99.90;;;;;;5060803;28;20226;-78
2023/05/10 08:22:46;;;;;;;9.45;9.15;;;15.80;99.90;;;;;;5060296;28;20242;-79
2023/05/10 08:25:14;;;;;;;9.60;9.30;;;15.90;99.90;;;;;;5060325;28;20259;-78
2023/05/10 08:27:41;;;;;;;9.70;9.40;;;16.00;99.90;;;;;;5059988;28;20241;-78
2023/05/10 08:30:11;;;;;;;10.00;9.70;;;16.20;99.90;;;;;;5060120;28;20233;-79
2023/05/10 08:32:39;;;;;;;9.90;9.60;;;16.30;99.90;;;;;;5059735;28;20290;-78
2023/05/10 08:35:07;;;;;;;9.63;9.32;;;16.30;99.90;;;;;;5059880;28;20322;-80
2023/05/10 08:37:34;;;;;;;9.20;8.90;;;16.40;99.90;;;;;;5060024;28;20268;-79
2023/05/10 08:40:03;;;;;;;9.30;9.00;;;16.40;99.90;;;;;;5060046;28;20333;-78
2023/05/10 08:42:37;;;;;;;9.38;9.07;;;16.50;99.90;;;;;;5060297;28;20303;-78
2023/05/10 08:59:15;;;;;;;10.90;10.60;;;16.60;99.90;;;;;;5096880;27;20599;-80
2023/05/10 09:01:48;;;;;;;10.60;10.30;;;16.10;99.90;;;;;;5050592;28;20299;-80
2023/05/10 09:04:15;;;;;;;10.40;10.10;;;15.90;99.90;;;;;;5040514;28;20246;-80
2023/05/10 09:06:43;;;;;;;10.38;10.07;;;15.40;99.90;;;;;;5039569;28;20232;-80
2023/05/10 09:09:10;;;;;;;10.40;10.10;;;15.20;99.90;;;;;;5046833;28;20246;-80
2023/05/10 09:11:38;;;;;;;10.43;10.13;;;15.00;99.90;;;;;;5047642;28;20255;-80
2023/05/10 09:14:06;;;;;;;10.50;10.20;;;15.00;99.90;;;;;;5044507;28;20279;-81
2023/05/10 09:16:35;;;;;;;10.70;10.40;;;15.00;99.90;;;;;;5043720;28;20234;-80
2023/05/10 09:19:04;;;;;;;10.25;9.95;;;15.10;99.90;;;;;;5040969;28;20325;-79
2023/05/10 09:21:33;;;;;;;10.30;10.00;;;15.20;99.90;;;;;;5042884;28;20285;-78
2023/05/10 09:24:05;;;;;;;10.18;9.88;;;15.50;99.90;;;;;;5045654;28;20236;-78
2023/05/10 09:26:33;;;;;;;10.27;9.98;;;15.70;99.90;;;;;;5046117;28;20247;-77
2023/05/10 09:29:02;;;;;;;10.48;10.18;;;15.80;99.90;;;;;;5045869;28;20255;-77
2023/05/10 09:31:48;;;;;;;10.60;10.30;;;16.00;99.90;;;;;;5046183;28;20242;-77
2023/05/10 09:34:20;;;;;;;10.70;10.40;;;16.10;99.90;;;;;;5037527;28;20224;-77
2023/05/10 09:36:56;;;;;;;10.52;10.23;;;16.20;99.90;;;;;;5036782;28;20215;-78
2023/05/10 09:39:33;;;;;;;10.32;10.02;;;16.50;99.90;;;;;;5035926;28;20262;-79
2023/05/10 09:42:03;;;;;;;10.63;10.32;;;16.50;99.90;;;;;;5036353;28;20231;-80
2023/05/10 09:44:31;;;;;;;10.55;10.25;;;16.60;99.90;;;;;;5035390;28;20235;-79
2023/05/10 09:47:00;;;;;;;10.30;10.00;;;16.90;99.90;;;;;;5035714;28;20223;-78
2023/05/10 09:49:29;;;;;;;10.63;10.32;;;17.00;99.90;;;;;;5035256;28;20235;-78
2023/05/10 09:52:03;;;;;;;10.90;10.60;;;17.30;99.90;;;;;;5035713;28;20228;-78
2023/05/10 09:54:31;;;;;;;10.85;10.55;;;17.70;99.90;;;;;;5034540;28;20241;-79
2023/05/10 09:56:59;;;;;;;10.93;10.63;;;17.70;99.90;;;;;;5034601;28;20290;-77
2023/05/10 09:59:28;;;;;;;11.10;10.80;;;17.80;99.90;;;;;;5030214;28;20259;-78
2023/05/10 10:01:58;;;;;;;10.65;10.35;;;17.90;99.90;;;;;;5024451;28;20228;-77
2023/05/10 10:04:27;;;;;;;10.20;9.90;;;17.90;99.90;;;;;;5021919;28;20239;-78
2023/05/10 10:07:03;;;;;;;9.88;9.57;;;17.80;99.90;;;;;;5021635;28;21064;-78
2023/05/10 10:09:31;;;;;;;9.65;9.35;;;17.90;99.90;;;;;;5021565;28;20232;-78
2023/05/10 10:11:59;;;;;;;9.90;9.60;;;18.00;99.90;;;;;;5022060;28;20247;-78
2023/05/10 10:14:27;;;;;;;9.88;9.57;;;17.90;99.90;;;;;;5022003;28;20242;-78
2023/05/10 10:16:55;;;;;;;9.25;8.95;;;17.90;99.90;;;;;;5021916;28;20228;-78
2023/05/10 10:19:24;;;;;;;10.55;10.25;;;17.90;99.90;;;;;;5021789;28;20236;-78
2023/05/10 10:21:52;;;;;;;10.75;10.45;;;17.90;99.90;;;;;;5021629;28;20343;-77
2023/05/10 10:24:20;;;;;;;10.65;10.35;;;18.10;99.90;;;;;;5021519;28;20291;-78
2023/05/10 10:26:48;;;;;;;10.73;10.43;;;18.60;99.90;;;;;;5020960;28;20288;-79
2023/05/10 10:29:25;;;;;;;10.70;10.40;;;19.10;99.90;;;;;;5021383;28;20236;-79
2023/05/10 10:32:05;;;;;;;10.70;10.40;;;19.30;99.90;;;;;;5021580;28;20321;-77
2023/05/10 10:34:33;;;;;;;10.95;10.65;;;18.50;99.90;;;;;;5021207;28;20235;-79
2023/05/10 10:37:06;;;;;;;10.95;10.65;;;17.90;99.90;;;;;;5021177;28;20324;-78
2023/05/10 10:39:36;;;;;;;10.80;10.50;;;17.60;99.90;;;;;;5028816;28;20263;-79
2023/05/10 10:42:05;;;;;;;11.15;10.85;;;17.50;99.90;;;;;;5028352;28;20246;-77
2023/05/10 10:44:40;;;;;;;11.00;10.70;;;17.50;99.90;;;;;;5025668;28;20327;-78
2023/05/10 10:47:28;;;;;;;10.95;10.65;;;17.50;99.90;;;;;;5021949;28;20243;-78
2023/05/10 10:50:06;;;;;;;11.07;10.77;;;17.30;99.90;;;;;;5021352;28;20243;-78
2023/05/10 10:52:36;;;;;;;10.90;10.60;;;17.10;99.90;;;;;;5029449;28;20320;-77
2023/05/10 10:55:08;;;;;;;10.85;10.55;;;17.00;99.90;;;;;;5022290;28;20234;-78
2023/05/10 10:57:48;;;;;;;11.05;10.75;;;17.00;99.90;;;;;;5024183;28;20244;-78
2023/05/10 11:00:28;;;;;;;11.35;10.98;;;17.00;99.90;;;;;;5022060;28;20228;-77
2023/05/10 11:02:59;;;;;;;11.10;10.80;;;17.00;99.90;;;;;;5022005;28;20235;-79
2023/05/10 11:05:40;;;;;;;11.48;11.07;;;17.00;99.90;;;;;;5020940;28;20264;-78
2023/05/10 11:08:18;;;;;;;11.40;11.00;;;17.00;99.90;;;;;;5022105;28;21114;-78
2023/05/10 11:11:08;;;;;;;11.35;10.95;;;17.00;99.90;;;;;;5020791;28;20296;-77
2023/05/10 11:13:39;;;;;;;10.95;10.65;;;17.10;99.90;;;;;;5021806;28;20235;-77
2023/05/10 11:16:28;;;;;;;11.02;10.73;;;17.40;99.90;;;;;;5023664;28;20979;-78
2023/05/10 11:19:06;;;;;;;11.13;10.77;;;17.60;99.90;;;;;;5019211;28;20236;-77
2023/05/10 11:21:35;;;;;;;11.25;10.90;;;17.80;99.90;;;;;;5021106;28;20262;-77
2023/05/10 11:24:15;;;;;;;11.38;10.98;;;17.80;99.90;;;;;;5020821;28;20236;-77
2023/05/10 11:26:43;;;;;;;10.90;10.60;;;17.60;99.90;;;;;;5020005;28;20284;-77
2023/05/10 11:29:11;;;;;;;11.13;10.80;;;17.50;99.90;;;;;;5019985;28;20686;-78
2023/05/10 11:31:44;;;;;;;11.30;10.90;;;17.30;99.90;;;;;;5019730;28;20274;-77
2023/05/10 11:34:14;;;;;;;11.40;11.00;;;17.20;99.90;;;;;;5020603;28;20232;-77
2023/05/10 11:36:41;;;;;;;11.18;10.85;;;17.20;99.90;;;;;;5020275;28;20232;-77
2023/05/10 11:39:11;;;;;;;11.43;11.02;;;17.30;99.90;;;;;;5019016;28;20231;-76
2023/05/10 11:41:38;;;;;;;11.40;11.00;;;17.20;99.90;;;;;;5019987;28;20236;-77
2023/05/10 11:44:07;;;;;;;11.48;11.07;;;17.20;99.90;;;;;;5029874;28;20238;-76
2023/05/10 11:46:34;;;;;;;11.50;11.10;;;17.10;99.90;;;;;;5024812;28;20789;-77
2023/05/10 11:49:04;;;;;;;11.02;10.73;;;17.10;99.90;;;;;;5023350;28;20236;-78
2023/05/10 11:51:34;;;;;;;11.10;10.80;;;17.10;99.90;;;;;;5023997;28;20243;-77
2023/05/10 11:54:07;;;;;;;10.95;10.65;;;17.20;99.90;;;;;;5020027;28;20231;-78
2023/05/10 11:56:36;;;;;;;10.98;10.68;;;17.20;99.90;;;;;;5020034;28;20248;-77
2023/05/10 11:59:04;;;;;;;11.20;10.80;;;17.30;99.90;;;;;;5018734;28;20240;-77
2023/05/10 12:01:32;;;;;;;11.20;10.90;;;17.40;99.90;;;;;;5020286;28;20259;-78
2023/05/10 12:04:01;;;;;;;11.27;10.88;;;17.40;99.90;;;;;;5019919;28;20283;-77
2023/05/10 12:06:31;;;;;;;11.30;10.90;;;17.40;99.90;;;;;;5019353;28;20228;-77
2023/05/10 12:08:59;;;;;;;11.30;10.90;;;17.30;99.90;;;;;;5018296;28;20244;-77
2023/05/10 12:11:28;;;;;;;11.38;10.98;;;17.20;99.90;;;;;;5019233;28;20247;-77
2023/05/10 12:13:57;;;;;;;11.60;11.20;;;17.10;99.90;;;;;;5019581;28;20259;-77
2023/05/10 12:16:27;;;;;;;11.40;11.00;;;17.00;99.90;;;;;;5019585;28;20239;-78
2023/05/10 12:18:57;;;;;;;11.10;10.80;;;17.00;99.90;;;;;;5018447;28;20324;-77
2023/05/10 12:21:25;;;;;;;11.30;10.90;;;17.10;99.90;;;;;;5019080;28;20228;-77
2023/05/10 12:23:55;;;;;;;10.90;10.60;;;17.30;99.90;;;;;;5018893;28;20778;-77
2023/05/10 12:26:24;;;;;;;11.00;10.70;;;17.30;99.90;;;;;;5018682;28;20228;-77
2023/05/10 12:28:51;;;;;;;10.77;10.48;;;17.50;99.90;;;;;;5018760;28;20243;-77
2023/05/10 12:31:21;;;;;;;11.27;10.88;;;17.70;99.90;;;;;;5019302;28;20240;-78
2023/05/10 12:33:49;;;;;;;11.02;10.73;;;17.90;99.90;;;;;;5021819;28;20236;-77
2023/05/10 12:36:17;;;;;;;11.23;10.85;;;18.10;99.90;;;;;;5024637;28;20234;-77
2023/05/10 12:38:47;;;;;;;11.30;10.90;;;18.10;99.90;;;;;;5018991;28;20235;-77
2023/05/10 12:41:17;;;;;;;11.15;10.77;;;18.10;99.90;;;;;;5020131;28;20240;-77
2023/05/10 12:43:46;;;;;;;11.27;10.88;;;18.10;99.90;;;;;;5019878;28;20295;-78
2023/05/10 12:46:16;;;;;;;10.90;10.60;;;18.00;99.90;;;;;;5024710;28;20236;-76
2023/05/10 12:48:49;;;;;;;11.38;10.98;;;17.90;99.90;;;;;;5019595;28;20224;-76
2023/05/10 12:51:19;;;;;;;11.35;10.95;;;17.80;99.90;;;;;;5019936;28;20231;-78
2023/05/10 12:53:47;;;;;;;11.10;10.80;;;17.70;99.90;;;;;;5020029;28;20228;-76
2023/05/10 12:56:15;;;;;;;10.90;10.60;;;17.70;99.90;;;;;;5019417;28;20786;-76
2023/05/10 12:58:47;;;;;;;10.80;10.50;;;17.60;99.90;;;;;;5018090;28;20239;-78
2023/05/10 13:01:15;;;;;;;10.90;10.60;;;17.60;99.90;;;;;;5019386;28;20236;-76
2023/05/10 13:03:44;;;;;;;11.00;10.70;;;17.60;99.90;;;;;;5019308;28;20236;-77
2023/05/10 13:06:13;;;;;;;10.65;10.35;;;17.70;99.90;;;;;;5018577;28;20238;-76
2023/05/10 13:08:40;;;;;;;11.00;10.70;;;17.70;99.90;;;;;;5017916;28;20242;-77